»·PEaware :: N441PW PASI-PAYA

N441PW :: PASI-PAYA

FLIGHT INFORMATION

Flight Status: Arrived
Operator: Privately registered:
United States
More flights under this callsign
Pilot: Stacy K. (11621)
Aircraft: CESSNA 404 TITAN
(C404)
More flights by this aircraft type
Origin: PASI Sitka Rocky Gutierrez
United States
Destination: PAYA Yakutat
United States
More flights between these airports :: More routes between these airports
Route: BKA YAK
File this flight plan on PilotEdge
Remarks:
Altitude:
(Current/Filed)
4,500ft
Speed:
(Current/Filed)
180kts
Departed: 24-May-19 03:25 PM
Arrived: 24-May-19 04:39 PM
Distance/Time
Traveled:
201nm/1:14
Distance/Time
To Go:
Arrived

Flight Plot

Page will automatically refresh every two minutes.

Flight plan parsing failed; only flown route is shown


Map Options




Map Legend


Flown Route
Filed Route
Departure Airport
Arrival Airport
Navaid (VOR, NDB)
Fix

Horizontal Profiles

Position Reports

Time Latitude Longitude Heading Altitude Ground
Speed
24-May-19 15:19 57.051971 -135.365362 316 25ft 0kts
24-May-19 15:20 57.051867 -135.365585 182 25ft 6kts
24-May-19 15:21 57.048958 -135.363236 140 25ft 13kts
24-May-19 15:22 57.044789 -135.357411 135 25ft 23kts
24-May-19 15:23 57.041678 -135.351720 314 25ft 20kts
24-May-19 15:24 57.049507 -135.390020 258 845ft 104kts
24-May-19 15:25 57.043580 -135.449275 264 2003ft 126kts
24-May-19 15:26 57.045185 -135.511716 283 2995ft 120kts
24-May-19 15:27 57.056270 -135.576558 300 3117ft 165kts
24-May-19 15:28 57.084649 -135.651123 307 2536ft 182kts
24-May-19 15:29 57.115279 -135.721203 310 2499ft 172kts
24-May-19 15:30 57.148331 -135.784185 312 2498ft 170kts
24-May-19 15:31 57.181793 -135.846286 313 2498ft 171kts
24-May-19 15:32 57.205945 -135.921274 298 2497ft 170kts
24-May-19 15:33 57.216193 -136.005323 276 2497ft 169kts
24-May-19 15:34 57.235989 -136.082181 313 2496ft 171kts
24-May-19 15:35 57.272825 -136.138599 319 2495ft 173kts
24-May-19 15:36 57.310909 -136.193522 319 2494ft 173kts
24-May-19 15:37 57.348796 -136.248321 320 2493ft 173kts
24-May-19 15:38 57.386898 -136.303617 320 2493ft 174kts
24-May-19 15:39 57.425105 -136.359209 320 2500ft 174kts
24-May-19 15:40 57.463180 -136.414764 320 2504ft 174kts
24-May-19 15:41 57.501217 -136.470418 320 2499ft 174kts
24-May-19 15:42 57.539354 -136.526370 320 2499ft 174kts
24-May-19 15:43 57.577442 -136.582405 319 2498ft 174kts
24-May-19 15:44 57.615330 -136.638297 319 2498ft 174kts
24-May-19 15:45 57.653257 -136.694403 319 2498ft 174kts
24-May-19 15:46 57.691125 -136.750575 319 2499ft 174kts
24-May-19 15:47 57.729005 -136.806919 319 2499ft 173kts
24-May-19 15:48 57.766758 -136.863230 319 2498ft 173kts
24-May-19 15:49 57.804473 -136.919639 319 2498ft 173kts
24-May-19 15:50 57.842198 -136.976220 319 2498ft 173kts
24-May-19 15:51 57.879747 -137.032691 319 2498ft 173kts
24-May-19 15:52 57.917439 -137.089532 318 2498ft 173kts
24-May-19 15:53 57.954909 -137.146198 318 2498ft 172kts
24-May-19 15:54 57.992328 -137.202943 318 2498ft 172kts
24-May-19 15:55 58.029994 -137.260233 319 2498ft 174kts
24-May-19 15:56 58.067835 -137.317933 319 2498ft 175kts
24-May-19 15:57 58.105200 -137.375071 319 2499ft 175kts
24-May-19 15:58 58.105200 -137.375071 319 2499ft 175kts
24-May-19 15:59 58.181277 -137.491903 318 2496ft 174kts
24-May-19 16:00 58.218993 -137.550071 318 2500ft 174kts
24-May-19 16:01 58.256510 -137.608096 318 2501ft 174kts
24-May-19 16:02 58.294074 -137.666357 318 2501ft 174kts
24-May-19 16:03 58.323616 -137.712293 318 2502ft 174kts
24-May-19 16:05 58.406764 -137.842139 319 2502ft 174kts
24-May-19 16:06 58.444112 -137.900739 321 2497ft 174kts
24-May-19 16:07 58.481503 -137.959555 321 2493ft 174kts
24-May-19 16:08 58.518852 -138.018477 321 2494ft 174kts
24-May-19 16:09 58.556264 -138.077670 320 2494ft 173kts
24-May-19 16:10 58.593422 -138.136628 320 2498ft 173kts
24-May-19 16:11 58.630686 -138.195928 320 2498ft 174kts
24-May-19 16:12 58.668016 -138.255507 320 2501ft 174kts
24-May-19 16:13 58.705344 -138.315246 320 2502ft 174kts
24-May-19 16:14 58.742719 -138.375235 320 2503ft 174kts
24-May-19 16:15 58.779953 -138.435173 320 2504ft 174kts
24-May-19 16:16 58.817149 -138.495222 320 2505ft 174kts
24-May-19 16:17 58.854295 -138.555367 320 2506ft 174kts
24-May-19 16:18 58.891426 -138.615660 319 2507ft 174kts
24-May-19 16:19 58.928530 -138.676090 319 2508ft 174kts
24-May-19 16:20 58.942423 -138.698760 319 2509ft 174kts
24-May-19 16:21 59.002589 -138.797225 319 2511ft 174kts
24-May-19 16:22 59.039677 -138.858147 319 2512ft 174kts
24-May-19 16:23 59.076664 -138.919080 319 2514ft 174kts
24-May-19 16:24 59.112453 -138.982577 304 2515ft 174kts
24-May-19 16:25 59.134233 -139.067217 296 2491ft 175kts
24-May-19 16:26 59.156731 -139.150994 298 2491ft 174kts
24-May-19 16:27 59.177298 -139.226289 298 2492ft 174kts
24-May-19 16:28 59.202236 -139.317892 298 2492ft 173kts
24-May-19 16:29 59.224835 -139.401232 298 2493ft 173kts
24-May-19 16:30 59.265260 -139.432343 13 2498ft 175kts
24-May-19 16:31 59.312561 -139.407384 14 2494ft 176kts
24-May-19 16:33 59.360189 -139.386278 353 2511ft 162kts
24-May-19 16:34 59.393327 -139.433661 314 1867ft 149kts
24-May-19 16:35 59.421185 -139.487807 314 1585ft 131kts
24-May-19 16:36 59.446400 -139.537092 314 1598ft 127kts
24-May-19 16:37 59.473421 -139.589950 315 610ft 138kts
24-May-19 16:38 59.496223 -139.634602 315 109ft 102kts
24-May-19 16:39 59.509311 -139.660428 314 37ft 16kts
24-May-19 16:40 59.508446 -139.665707 285 37ft 12kts
24-May-19 16:41 59.508680 -139.668739 134 37ft 0kts
24-May-19 16:42 59.508680 -139.668739 134 37ft 0kts
24-May-19 16:43 59.508680 -139.668739 134 37ft 0kts
24-May-19 16:44 59.508680 -139.668739 134 37ft 0kts
24-May-19 16:45 59.508680 -139.668739 134 37ft 0kts
24-May-19 16:46 59.508680 -139.668739 134 37ft 0kts
24-May-19 16:47 59.508680 -139.668739 134 37ft 0kts
24-May-19 16:48 59.508680 -139.668739 134 37ft 0kts
24-May-19 16:49 59.508680 -139.668739 134 37ft 0kts
24-May-19 16:50 59.508680 -139.668739 134 37ft 0kts
24-May-19 16:51 59.508680 -139.668739 134 37ft 0kts
24-May-19 16:52 59.508680 -139.668739 134 37ft 0kts

Navigation Log

Ident Type
Flight plan parsing failed, navigation log unavailable